Time;durP1;ratioP1;P1;durP2;ratioP2;P2;SDS_P1;SDS_P2;PMS_P1;PMS_P2;Temp;Humidity;BMP_temperature;BMP_pressure;BME280_temperature;BME280_humidity;BME280_pressure;Samples;Min_cycle;Max_cycle;Signal;HPM_P1;HPM_P2
2023/08/17 00:03:17;;;;;;;;;;;19.90;99.90;;;;;;8400458;28;20371;-72
2023/08/17 00:07:19;;;;;;;;;;;19.90;99.90;;;;;;8421571;28;19931;-72
2023/08/17 00:11:20;;;;;;;;;;;19.80;99.90;;;;;;8410447;28;19931;-72
2023/08/17 00:15:22;;;;;;;;;;;19.80;99.90;;;;;;8420005;28;19924;-72
2023/08/17 00:19:24;;;;;;;;;;;19.80;99.90;;;;;;8425522;28;19928;-72
2023/08/17 00:23:25;;;;;;;;;;;19.80;99.90;;;;;;8421316;28;19932;-72
2023/08/17 00:27:27;;;;;;;;;;;19.80;99.90;;;;;;8410661;28;19932;-72
2023/08/17 00:31:29;;;;;;;;;;;19.70;99.90;;;;;;8403581;28;19936;-72
2023/08/17 00:35:31;;;;;;;;;;;19.70;99.90;;;;;;8409178;28;19928;-72
2023/08/17 00:39:32;;;;;;;;;;;19.70;99.90;;;;;;8423169;28;19931;-72
2023/08/17 00:43:34;;;;;;;;;;;19.60;99.90;;;;;;8421838;28;19924;-72
2023/08/17 00:47:36;;;;;;;;;;;19.50;99.90;;;;;;8419989;28;20422;-72
2023/08/17 00:51:39;;;;;;;;;;;19.40;99.90;;;;;;8400344;28;20427;-72
2023/08/17 00:55:40;;;;;;;;;;;19.50;99.90;;;;;;8433581;28;19927;-72
2023/08/17 00:59:42;;;;;;;;;;;19.40;99.90;;;;;;8424938;28;19924;-72
2023/08/17 01:03:50;;;;;;;;;;;19.40;99.90;;;;;;8421536;28;19932;-72
2023/08/17 01:07:51;;;;;;;;;;;19.40;99.90;;;;;;8406347;28;19924;-72
2023/08/17 01:12:00;;;;;;;;;;;19.40;99.90;;;;;;8411218;28;20261;-72
2023/08/17 01:16:03;;;;;;;;;;;19.40;99.90;;;;;;8408200;28;19932;-72
2023/08/17 01:20:06;;;;;;;;;;;19.30;99.90;;;;;;8418777;28;20387;-72
2023/08/17 01:24:08;;;;;;;;;;;19.30;99.90;;;;;;8402194;28;19928;-72
2023/08/17 01:28:10;;;;;;;;;;;19.20;99.90;;;;;;8419974;28;19924;-72
2023/08/17 01:32:27;;;;;;;;;;;19.20;99.90;;;;;;8423619;28;19931;-72
2023/08/17 01:36:42;;;;;;;;;;;19.20;99.90;;;;;;8408956;28;19939;-72
2023/08/17 01:40:45;;;;;;;;;;;19.10;99.90;;;;;;8399801;28;20335;-72
2023/08/17 01:44:46;;;;;;;;;;;19.10;99.90;;;;;;8422633;28;19924;-72
2023/08/17 01:48:48;;;;;;;;;;;19.10;99.90;;;;;;8418243;28;19924;-72
2023/08/17 01:52:51;;;;;;;;;;;19.10;99.90;;;;;;8415469;28;19924;-72
2023/08/17 01:56:52;;;;;;;;;;;19.00;99.90;;;;;;8401648;28;19924;-72
2023/08/17 02:00:54;;;;;;;;;;;19.10;99.90;;;;;;8397733;28;19925;-72
2023/08/17 02:04:56;;;;;;;;;;;19.00;99.90;;;;;;8402572;28;19930;-72
2023/08/17 02:08:58;;;;;;;;;;;19.00;99.90;;;;;;8417703;28;19930;-72
2023/08/17 02:12:59;;;;;;;;;;;19.00;99.90;;;;;;8415646;28;19931;-72
2023/08/17 02:17:16;;;;;;;;;;;19.00;99.90;;;;;;8421226;28;20368;-72
2023/08/17 02:21:17;;;;;;;;;;;19.00;99.90;;;;;;8426790;28;19931;-72
2023/08/17 02:25:19;;;;;;;;;;;18.90;99.90;;;;;;8409983;28;19963;-72
2023/08/17 02:29:21;;;;;;;;;;;18.90;99.90;;;;;;8426947;28;19954;-72
2023/08/17 02:33:24;;;;;;;;;;;18.80;99.90;;;;;;8429681;28;19931;-72
2023/08/17 02:37:25;;;;;;;;;;;18.80;99.90;;;;;;8432408;28;19924;-72
2023/08/17 02:41:27;;;;;;;;;;;18.70;99.90;;;;;;8424608;28;19989;-72
2023/08/17 02:45:29;;;;;;;;;;;18.70;99.90;;;;;;8420768;28;19924;-72
2023/08/17 02:49:31;;;;;;;;;;;18.70;99.90;;;;;;8426549;28;19928;-72
2023/08/17 02:53:32;;;;;;;;;;;18.70;99.90;;;;;;8430214;28;19924;-72
2023/08/17 02:57:34;;;;;;;;;;;18.70;99.90;;;;;;8434283;28;19925;-72
2023/08/17 03:01:36;;;;;;;;;;;18.70;99.90;;;;;;8426635;28;19924;-72
2023/08/17 03:05:37;;;;;;;;;;;18.60;99.90;;;;;;8414501;28;19971;-72
2023/08/17 03:09:39;;;;;;;;;;;18.60;99.90;;;;;;8434430;28;19928;-72
2023/08/17 03:13:41;;;;;;;;;;;18.60;99.90;;;;;;8427327;28;19924;-71
2023/08/17 03:17:42;;;;;;;;;;;18.50;99.90;;;;;;8423442;28;20372;-71
2023/08/17 03:52:05;;;;;;;;;;;18.40;99.90;;;;;;8413384;28;19963;-71
2023/08/17 03:56:07;;;;;;;;;;;18.30;99.90;;;;;;8412795;28;19969;-72
2023/08/17 04:00:10;;;;;;;;;;;18.30;99.90;;;;;;8408978;28;19928;-72
2023/08/17 04:04:11;;;;;;;;;;;18.30;99.90;;;;;;8418112;28;20399;-72
2023/08/17 04:08:13;;;;;;;;;;;18.30;99.90;;;;;;8408294;28;20474;-72
2023/08/17 04:12:15;;;;;;;;;;;18.30;99.90;;;;;;8428460;28;19924;-71
2023/08/17 04:16:16;;;;;;;;;;;18.20;99.90;;;;;;8416968;28;19924;-72
2023/08/17 04:20:18;;;;;;;;;;;18.20;99.90;;;;;;8421409;28;20381;-72
2023/08/17 04:24:20;;;;;;;;;;;18.20;99.90;;;;;;8396699;28;19928;-72
2023/08/17 04:28:22;;;;;;;;;;;18.20;99.90;;;;;;8403120;28;19931;-72
2023/08/17 04:32:23;;;;;;;;;;;18.20;99.90;;;;;;8419473;28;19924;-72
2023/08/17 04:36:25;;;;;;;;;;;18.20;99.90;;;;;;8431360;28;19985;-71
2023/08/17 04:40:27;;;;;;;;;;;18.20;99.90;;;;;;8431144;28;19924;-72
2023/08/17 04:44:28;;;;;;;;;;;18.20;99.90;;;;;;8411132;28;19973;-71
2023/08/17 04:48:30;;;;;;;;;;;18.10;99.90;;;;;;8410243;28;19932;-72
2023/08/17 04:52:32;;;;;;;;;;;18.20;99.90;;;;;;8416483;28;19954;-72
2023/08/17 04:56:34;;;;;;;;;;;18.10;99.90;;;;;;8399589;28;19996;-71
2023/08/17 05:00:37;;;;;;;;;;;18.20;99.90;;;;;;8428034;28;19924;-71
2023/08/17 05:04:39;;;;;;;;;;;18.10;99.90;;;;;;8422783;28;19931;-71
2023/08/17 05:08:41;;;;;;;;;;;18.10;99.90;;;;;;8423924;28;20368;-71
2023/08/17 05:12:43;;;;;;;;;;;18.20;99.90;;;;;;8404402;28;19986;-71
2023/08/17 05:16:44;;;;;;;;;;;18.20;99.90;;;;;;8409420;28;19928;-72
2023/08/17 05:20:46;;;;;;;;;;;18.20;99.90;;;;;;8423278;28;20363;-71
2023/08/17 05:24:48;;;;;;;;;;;18.20;99.90;;;;;;8423799;28;19933;-71
2023/08/17 05:28:49;;;;;;;;;;;18.20;99.90;;;;;;8417598;28;19931;-72
2023/08/17 05:32:51;;;;;;;;;;;18.20;99.90;;;;;;8437619;28;19932;-71
2023/08/17 05:36:53;;;;;;;;;;;18.20;99.90;;;;;;8421719;28;19936;-72
2023/08/17 05:40:56;;;;;;;;;;;18.30;99.90;;;;;;8414939;28;19970;-72
2023/08/17 05:44:57;;;;;;;;;;;18.30;99.90;;;;;;8401876;28;19924;-71
2023/08/17 05:49:00;;;;;;;;;;;18.30;99.90;;;;;;8416302;28;19931;-72
2023/08/17 05:53:02;;;;;;;;;;;18.20;99.90;;;;;;8434336;28;19969;-71
2023/08/17 05:57:03;;;;;;;;;;;18.30;99.90;;;;;;8437331;28;19971;-72
2023/08/17 06:01:08;;;;;;;;;;;18.30;99.90;;;;;;8437460;28;20375;-72
2023/08/17 06:05:10;;;;;;;;;;;18.30;99.90;;;;;;8445788;28;19924;-72
2023/08/17 06:09:11;;;;;;;;;;;18.40;99.90;;;;;;8434024;28;20436;-71
2023/08/17 06:13:13;;;;;;;;;;;18.40;99.90;;;;;;8420921;28;20393;-72
2023/08/17 06:17:15;;;;;;;;;;;18.50;99.90;;;;;;8441669;28;20033;-72
2023/08/17 06:21:16;;;;;;;;;;;18.60;99.90;;;;;;8446364;28;20434;-71
2023/08/17 06:25:18;;;;;;;;;;;18.70;99.90;;;;;;8438777;28;19930;-72
2023/08/17 06:29:20;;;;;;;;;;;18.70;99.90;;;;;;8387300;28;19937;-72
2023/08/17 06:33:22;;;;;;;;;;;18.80;99.90;;;;;;8443504;28;19932;-72
2023/08/17 06:37:23;;;;;;;;;;;18.80;99.90;;;;;;8433863;28;19961;-71
2023/08/17 06:41:26;;;;;;;;;;;18.80;99.90;;;;;;8450714;28;19991;-72
2023/08/17 06:45:28;;;;;;;;;;;18.80;99.90;;;;;;8424100;28;19924;-72
2023/08/17 06:49:30;;;;;;;;;;;18.80;99.90;;;;;;8399578;28;20024;-72
2023/08/17 06:53:32;;;;;;;;;;;18.80;99.90;;;;;;8435858;28;19936;-72
2023/08/17 06:57:34;;;;;;;;;;;18.80;99.90;;;;;;8408085;28;19939;-71
2023/08/17 07:01:36;;;;;;;;;;;18.80;99.90;;;;;;8382176;28;19932;-72
2023/08/17 07:05:37;;;;;;;;;;;18.80;99.90;;;;;;8398291;28;19936;-72
2023/08/17 07:09:39;;;;;;;;;;;18.90;99.90;;;;;;8394190;28;19928;-72
2023/08/17 07:13:41;;;;;;;;;;;18.90;99.90;;;;;;8398414;28;20251;-72
2023/08/17 07:17:43;;;;;;;;;;;18.90;99.90;;;;;;8378626;28;19927;-72
2023/08/17 07:21:44;;;;;;;;;;;18.90;99.90;;;;;;8404131;27;19927;-71
2023/08/17 07:25:46;;;;;;;;;;;18.90;99.90;;;;;;8396313;28;19929;-72
2023/08/17 07:29:48;;;;;;;;;;;19.00;99.90;;;;;;8394287;28;19933;-71
2023/08/17 07:33:49;;;;;;;;;;;19.10;99.90;;;;;;8397643;28;19924;-71
2023/08/17 07:37:51;;;;;;;;;;;19.00;99.90;;;;;;8405754;28;19924;-72
2023/08/17 07:42:04;;;;;;;;;;;19.10;99.90;;;;;;8407040;28;19951;-71
2023/08/17 07:46:06;;;;;;;;;;;19.20;99.90;;;;;;8397772;28;19932;-72
2023/08/17 07:50:07;;;;;;;;;;;19.30;99.90;;;;;;8397612;28;19971;-72
2023/08/17 07:54:09;;;;;;;;;;;19.40;99.90;;;;;;8392906;28;20372;-72
2023/08/17 07:58:11;;;;;;;;;;;19.40;99.90;;;;;;8394860;28;19929;-72
2023/08/17 08:02:13;;;;;;;;;;;19.40;99.90;;;;;;8394812;28;19978;-71
2023/08/17 08:06:15;;;;;;;;;;;19.50;99.90;;;;;;8392176;28;20393;-72
2023/08/17 08:10:19;;;;;;;;;;;19.50;99.90;;;;;;8387425;28;21286;-72
2023/08/17 08:14:20;;;;;;;;;;;19.50;99.90;;;;;;8397153;28;19962;-72
2023/08/17 08:18:22;;;;;;;;;;;19.60;99.90;;;;;;8386614;28;20391;-72
2023/08/17 08:22:24;;;;;;;;;;;19.70;99.90;;;;;;8408095;27;19932;-72
2023/08/17 08:26:25;;;;;;;;;;;19.80;99.90;;;;;;8387069;28;20392;-72
2023/08/17 08:30:27;;;;;;;;;;;19.90;99.90;;;;;;8398623;28;20585;-72
2023/08/17 08:34:29;;;;;;;;;;;20.00;99.90;;;;;;8411594;28;19958;-72
2023/08/17 08:38:30;;;;;;;;;;;20.00;99.90;;;;;;8386438;28;20108;-72
2023/08/17 08:42:32;;;;;;;;;;;20.00;99.90;;;;;;8399892;28;19932;-72
2023/08/17 08:46:36;;;;;;;;;;;20.00;99.90;;;;;;8392552;28;19955;-72
2023/08/17 08:50:40;;;;;;;;;;;19.90;99.90;;;;;;8406443;28;20714;-72
2023/08/17 08:54:44;;;;;;;;;;;19.90;99.90;;;;;;8394713;28;19932;-71
2023/08/17 08:58:46;;;;;;;;;;;19.90;99.90;;;;;;8395731;28;19936;-72
2023/08/17 09:02:49;;;;;;;;;;;19.90;99.90;;;;;;8391109;28;21239;-72
2023/08/17 09:06:50;;;;;;;;;;;20.00;99.90;;;;;;8391868;28;20272;-72
2023/08/17 09:10:52;;;;;;;;;;;20.00;99.90;;;;;;8390752;28;19924;-72
2023/08/17 09:14:54;;;;;;;;;;;20.00;99.90;;;;;;8393408;28;20303;-72
2023/08/17 09:18:58;;;;;;;;;;;20.00;99.90;;;;;;8403567;28;19963;-72
2023/08/17 09:23:02;;;;;;;;;;;20.00;99.90;;;;;;8393700;28;19937;-72
2023/08/17 09:27:04;;;;;;;;;;;20.00;99.90;;;;;;8391038;28;20350;-72
2023/08/17 09:31:11;;;;;;;;;;;20.00;99.90;;;;;;8409329;28;19929;-72
2023/08/17 09:35:13;;;;;;;;;;;20.00;99.90;;;;;;8402262;28;20022;-72
2023/08/17 09:39:20;;;;;;;;;;;20.00;99.90;;;;;;8396846;28;19984;-72
2023/08/17 09:43:22;;;;;;;;;;;20.00;99.90;;;;;;8395179;28;19924;-72
2023/08/17 09:47:24;;;;;;;;;;;20.00;99.90;;;;;;8420823;27;19967;-72
2023/08/17 09:51:27;;;;;;;;;;;20.00;99.90;;;;;;8401387;28;20465;-72
2023/08/17 09:55:33;;;;;;;;;;;20.00;99.90;;;;;;8412176;28;19924;-72
2023/08/17 09:59:35;;;;;;;;;;;20.10;99.90;;;;;;8396429;28;19924;-72
2023/08/17 10:03:42;;;;;;;;;;;20.20;99.90;;;;;;8414701;28;21974;-72
2023/08/17 10:07:48;;;;;;;;;;;20.30;99.90;;;;;;8403838;28;19933;-72
2023/08/17 10:11:51;;;;;;;;;;;20.30;99.90;;;;;;8379862;28;19924;-72
2023/08/17 10:16:02;;;;;;;;;;;20.40;99.90;;;;;;8400140;28;19930;-72
2023/08/17 10:20:04;;;;;;;;;;;20.40;99.90;;;;;;8411518;28;19981;-72
2023/08/17 10:24:07;;;;;;;;;;;20.40;99.90;;;;;;8411801;28;19928;-72
2023/08/17 10:28:09;;;;;;;;;;;20.40;99.90;;;;;;8408149;28;20394;-73
2023/08/17 10:32:12;;;;;;;;;;;20.40;99.90;;;;;;8404145;28;19981;-72
2023/08/17 10:36:22;;;;;;;;;;;20.50;99.90;;;;;;8407148;28;19990;-72
2023/08/17 10:40:28;;;;;;;;;;;20.50;99.90;;;;;;8414374;28;20384;-72
2023/08/17 10:44:42;;;;;;;;;;;20.50;99.90;;;;;;8406775;28;19935;-72
2023/08/17 10:48:44;;;;;;;;;;;20.60;99.90;;;;;;8401863;28;20891;-72
2023/08/17 10:52:47;;;;;;;;;;;20.50;99.90;;;;;;8396017;28;19939;-72
2023/08/17 10:56:49;;;;;;;;;;;20.60;99.90;;;;;;8378417;28;20399;-75
2023/08/17 11:00:54;;;;;;;;;;;20.60;99.90;;;;;;8395289;28;19939;-73
2023/08/17 11:04:55;;;;;;;;;;;20.60;99.90;;;;;;8393770;28;19933;-72
2023/08/17 11:08:57;;;;;;;;;;;20.50;99.90;;;;;;8398689;28;20422;-72
2023/08/17 11:12:59;;;;;;;;;;;20.60;99.90;;;;;;8382112;28;20016;-72
2023/08/17 11:17:02;;;;;;;;;;;20.60;99.90;;;;;;8393230;28;20345;-72
2023/08/17 11:21:07;;;;;;;;;;;20.70;99.90;;;;;;8393919;28;20307;-72
2023/08/17 11:25:09;;;;;;;;;;;20.70;99.90;;;;;;8396576;28;19932;-72
2023/08/17 11:29:11;;;;;;;;;;;20.70;99.90;;;;;;8393328;28;19963;-73
2023/08/17 11:33:13;;;;;;;;;;;20.70;99.90;;;;;;8396186;28;20168;-72
2023/08/17 11:37:15;;;;;;;;;;;20.80;99.90;;;;;;8402238;28;20777;-72
2023/08/17 11:41:17;;;;;;;;;;;20.80;99.90;;;;;;8409593;28;19977;-72
2023/08/17 11:45:20;;;;;;;;;;;20.70;99.90;;;;;;8405981;28;20007;-72
2023/08/17 11:49:30;;;;;;;;;;;20.70;99.90;;;;;;8407729;28;19931;-72
2023/08/17 11:53:41;;;;;;;;;;;20.60;99.90;;;;;;8418463;27;19930;-72
2023/08/17 11:57:42;;;;;;;;;;;20.60;99.90;;;;;;8406808;28;20392;-72
2023/08/17 12:01:44;;;;;;;;;;;20.70;99.90;;;;;;8408457;28;20339;-72
2023/08/17 12:05:46;;;;;;;;;;;20.70;99.90;;;;;;8420405;28;19932;-72
2023/08/17 12:09:49;;;;;;;;;;;20.80;99.90;;;;;;8398857;28;19928;-72
2023/08/17 12:13:51;;;;;;;;;;;20.80;99.90;;;;;;8383083;28;19925;-72
2023/08/17 12:17:52;;;;;;;;;;;20.80;99.90;;;;;;8401595;28;19932;-72
2023/08/17 12:21:56;;;;;;;;;;;20.90;99.90;;;;;;8410519;28;19931;-72
2023/08/17 12:25:57;;;;;;;;;;;20.90;99.90;;;;;;8403793;28;20000;-72
2023/08/17 12:29:59;;;;;;;;;;;21.00;99.90;;;;;;8395103;28;19924;-72
2023/08/17 12:34:01;;;;;;;;;;;21.00;99.90;;;;;;8395982;28;19928;-72
2023/08/17 12:38:02;;;;;;;;;;;20.90;99.90;;;;;;8392800;28;19932;-72
2023/08/17 12:42:04;;;;;;;;;;;20.90;99.90;;;;;;8401128;28;19928;-72
2023/08/17 12:46:12;;;;;;;;;;;20.80;99.90;;;;;;8408274;28;19930;-72
2023/08/17 12:50:14;;;;;;;;;;;20.80;99.90;;;;;;8402649;28;19978;-72
2023/08/17 12:54:16;;;;;;;;;;;20.80;99.90;;;;;;8401184;28;19931;-72
2023/08/17 12:58:17;;;;;;;;;;;20.80;99.90;;;;;;8403872;28;19924;-72
2023/08/17 13:02:19;;;;;;;;;;;20.80;99.90;;;;;;8402668;28;19932;-72
2023/08/17 13:06:22;;;;;;;;;;;20.80;99.90;;;;;;8404736;28;19932;-72
2023/08/17 13:10:24;;;;;;;;;;;20.80;99.90;;;;;;8403171;28;19924;-72
2023/08/17 13:14:25;;;;;;;;;;;20.80;99.90;;;;;;8403156;28;19966;-72
2023/08/17 13:18:28;;;;;;;;;;;20.80;99.90;;;;;;8383351;28;19927;-72
2023/08/17 13:22:30;;;;;;;;;;;20.80;99.90;;;;;;8388952;28;19997;-73
2023/08/17 13:26:31;;;;;;;;;;;20.80;99.90;;;;;;8390618;28;19954;-72
2023/08/17 13:30:33;;;;;;;;;;;20.80;99.90;;;;;;8398674;28;19970;-72
2023/08/17 13:34:35;;;;;;;;;;;20.80;99.90;;;;;;8396726;28;19929;-72
2023/08/17 13:38:38;;;;;;;;;;;20.80;99.90;;;;;;8394385;28;19929;-72
2023/08/17 13:42:40;;;;;;;;;;;20.80;99.90;;;;;;8386294;28;20375;-72
2023/08/17 13:46:41;;;;;;;;;;;20.80;99.90;;;;;;8383671;28;20280;-72
2023/08/17 13:50:44;;;;;;;;;;;20.80;99.90;;;;;;8398680;28;19975;-72
2023/08/17 13:54:46;;;;;;;;;;;20.80;99.90;;;;;;8397168;28;19924;-72
2023/08/17 13:58:48;;;;;;;;;;;20.90;99.90;;;;;;8404045;28;20388;-72
2023/08/17 14:02:49;;;;;;;;;;;20.90;99.90;;;;;;8390759;28;20332;-72
2023/08/17 14:06:52;;;;;;;;;;;20.90;99.90;;;;;;8394497;28;19927;-72
2023/08/17 14:10:53;;;;;;;;;;;20.90;99.90;;;;;;8389637;28;19928;-72
2023/08/17 14:14:55;;;;;;;;;;;20.90;99.90;;;;;;8408109;28;19935;-72
2023/08/17 14:18:57;;;;;;;;;;;20.90;99.90;;;;;;8414473;28;19986;-73
2023/08/17 14:22:58;;;;;;;;;;;20.90;99.90;;;;;;8391652;28;19932;-72
2023/08/17 14:27:00;;;;;;;;;;;20.90;99.90;;;;;;8372386;28;19959;-72
2023/08/17 14:31:02;;;;;;;;;;;20.90;99.90;;;;;;8392580;28;19990;-72
2023/08/17 14:35:04;;;;;;;;;;;20.90;99.90;;;;;;8407063;28;20371;-72
2023/08/17 14:39:05;;;;;;;;;;;20.90;99.90;;;;;;8403997;28;20362;-72
2023/08/17 14:43:09;;;;;;;;;;;20.90;99.90;;;;;;8401172;28;20291;-72
2023/08/17 14:47:11;;;;;;;;;;;20.90;99.90;;;;;;8403166;28;19925;-73
2023/08/17 14:51:13;;;;;;;;;;;20.90;99.90;;;;;;8408613;28;19962;-72
2023/08/17 14:55:14;;;;;;;;;;;20.90;99.90;;;;;;8423347;28;19924;-72
2023/08/17 14:59:17;;;;;;;;;;;20.90;99.90;;;;;;8407864;28;19947;-72
2023/08/17 15:03:18;;;;;;;;;;;20.90;99.90;;;;;;8400743;28;19929;-72
2023/08/17 15:07:25;;;;;;;;;;;21.00;99.90;;;;;;8394251;28;19928;-72
2023/08/17 15:11:27;;;;;;;;;;;21.10;99.90;;;;;;8399476;28;20279;-72
2023/08/17 15:15:28;;;;;;;;;;;21.10;99.90;;;;;;8397283;28;20426;-72
2023/08/17 15:19:30;;;;;;;;;;;21.10;99.90;;;;;;8376327;28;20291;-72
2023/08/17 15:23:38;;;;;;;;;;;21.10;99.90;;;;;;8395716;28;19928;-72
2023/08/17 15:27:40;;;;;;;;;;;21.10;99.90;;;;;;8395208;28;19924;-72
2023/08/17 15:31:41;;;;;;;;;;;21.00;99.90;;;;;;8410998;27;19924;-72
2023/08/17 15:35:43;;;;;;;;;;;21.00;99.90;;;;;;8409213;28;20306;-72
2023/08/17 15:39:45;;;;;;;;;;;21.00;99.90;;;;;;8390752;28;19928;-72
2023/08/17 15:43:46;;;;;;;;;;;20.90;99.90;;;;;;8403485;28;19931;-72
2023/08/17 15:47:48;;;;;;;;;;;20.90;99.90;;;;;;8401874;28;19993;-72
2023/08/17 15:51:50;;;;;;;;;;;20.90;99.90;;;;;;8397788;28;20023;-72
2023/08/17 15:55:51;;;;;;;;;;;20.80;99.90;;;;;;8389701;28;20459;-72
2023/08/17 15:59:53;;;;;;;;;;;20.80;99.90;;;;;;8385302;28;19979;-72
2023/08/17 16:03:55;;;;;;;;;;;20.80;99.90;;;;;;8395090;28;19924;-73
2023/08/17 16:07:56;;;;;;;;;;;20.80;99.90;;;;;;8393072;28;20044;-72
2023/08/17 16:11:58;;;;;;;;;;;20.80;99.90;;;;;;8394684;28;19924;-72
2023/08/17 16:16:00;;;;;;;;;;;20.80;99.90;;;;;;8387366;28;20536;-72
2023/08/17 16:20:02;;;;;;;;;;;20.80;99.90;;;;;;8404647;27;19985;-72
2023/08/17 16:24:08;;;;;;;;;;;20.80;99.90;;;;;;8409809;28;19928;-72
2023/08/17 16:28:10;;;;;;;;;;;20.80;99.90;;;;;;8396952;28;22018;-72
2023/08/17 16:32:12;;;;;;;;;;;20.80;99.90;;;;;;8395537;28;19928;-72
2023/08/17 16:36:14;;;;;;;;;;;20.80;99.90;;;;;;8402569;28;19933;-72
2023/08/17 16:40:15;;;;;;;;;;;20.80;99.90;;;;;;8411087;27;19932;-72
2023/08/17 16:44:32;;;;;;;;;;;20.80;99.90;;;;;;8391655;28;19939;-73
2023/08/17 16:48:34;;;;;;;;;;;20.80;99.90;;;;;;8395455;28;19932;-72
2023/08/17 16:52:35;;;;;;;;;;;20.80;99.90;;;;;;8396302;28;19956;-72
2023/08/17 16:56:43;;;;;;;;;;;20.80;99.90;;;;;;8395954;28;21955;-72
2023/08/17 17:00:44;;;;;;;;;;;20.80;99.90;;;;;;8384048;28;20858;-72
2023/08/17 17:04:46;;;;;;;;;;;20.70;99.90;;;;;;8393149;28;20023;-72
2023/08/17 17:08:48;;;;;;;;;;;20.70;99.90;;;;;;8389702;28;20003;-72
2023/08/17 17:12:50;;;;;;;;;;;20.70;99.90;;;;;;8398091;28;19935;-72
2023/08/17 17:16:51;;;;;;;;;;;20.70;99.90;;;;;;8406687;27;19939;-73
2023/08/17 17:20:53;;;;;;;;;;;20.70;99.90;;;;;;8394474;28;20049;-72
2023/08/17 17:24:55;;;;;;;;;;;20.60;99.90;;;;;;8398651;28;20008;-72
2023/08/17 17:28:57;;;;;;;;;;;20.60;99.90;;;;;;8390680;28;20304;-72
2023/08/17 17:32:58;;;;;;;;;;;20.60;99.90;;;;;;8390219;28;19982;-73
2023/08/17 17:37:00;;;;;;;;;;;20.60;99.90;;;;;;8383535;28;19967;-72
2023/08/17 17:41:02;;;;;;;;;;;20.60;99.90;;;;;;8396720;28;20410;-72
2023/08/17 17:45:04;;;;;;;;;;;20.60;99.90;;;;;;8403662;28;19924;-72
2023/08/17 17:49:05;;;;;;;;;;;20.60;99.90;;;;;;8400023;28;20402;-72
2023/08/17 17:53:08;;;;;;;;;;;20.50;99.90;;;;;;8379763;28;20402;-72
2023/08/17 17:57:10;;;;;;;;;;;20.50;99.90;;;;;;8376998;28;20384;-72
2023/08/17 18:01:12;;;;;;;;;;;20.50;99.90;;;;;;8386231;28;20661;-72
2023/08/17 18:05:13;;;;;;;;;;;20.50;99.90;;;;;;8402606;28;19936;-72
2023/08/17 18:09:15;;;;;;;;;;;20.50;99.90;;;;;;8396764;28;19978;-72
2023/08/17 18:13:17;;;;;;;;;;;20.50;99.90;;;;;;8384483;28;19932;-72
2023/08/17 18:17:18;;;;;;;;;;;20.50;99.90;;;;;;8408320;28;19978;-72
2023/08/17 18:21:20;;;;;;;;;;;20.50;99.90;;;;;;8407731;28;19925;-72
2023/08/17 18:25:22;;;;;;;;;;;20.40;99.90;;;;;;8402426;28;19931;-72
2023/08/17 18:29:24;;;;;;;;;;;20.50;99.90;;;;;;8402546;28;19928;-72
2023/08/17 18:33:26;;;;;;;;;;;20.40;99.90;;;;;;8405221;28;19932;-72
2023/08/17 18:37:27;;;;;;;;;;;20.40;99.90;;;;;;8407530;28;19982;-72
2023/08/17 18:41:29;;;;;;;;;;;20.40;99.90;;;;;;8388908;28;19936;-72
2023/08/17 18:45:31;;;;;;;;;;;20.40;99.90;;;;;;8409227;28;19925;-72
2023/08/17 18:49:33;;;;;;;;;;;20.30;99.90;;;;;;8406580;28;19932;-71
2023/08/17 18:53:34;;;;;;;;;;;20.30;99.90;;;;;;8399487;28;19928;-72
2023/08/17 18:57:36;;;;;;;;;;;20.30;99.90;;;;;;8409357;27;19928;-72
2023/08/17 19:01:38;;;;;;;;;;;20.30;99.90;;;;;;8391755;28;19932;-71
2023/08/17 19:05:40;;;;;;;;;;;20.30;99.90;;;;;;8389837;28;19932;-73
2023/08/17 19:09:44;;;;;;;;;;;20.30;99.90;;;;;;8390677;28;19940;-72
2023/08/17 19:13:45;;;;;;;;;;;20.30;99.90;;;;;;8386534;28;19932;-72
2023/08/17 19:17:47;;;;;;;;;;;20.30;99.90;;;;;;8392234;28;19973;-72
2023/08/17 19:21:49;;;;;;;;;;;20.30;99.90;;;;;;8404983;28;20027;-72
2023/08/17 19:25:50;;;;;;;;;;;20.30;99.90;;;;;;8393208;28;19932;-72
2023/08/17 19:29:52;;;;;;;;;;;20.30;99.90;;;;;;8404190;28;19932;-72
2023/08/17 19:33:54;;;;;;;;;;;20.30;99.90;;;;;;8400538;28;20524;-72
2023/08/17 19:37:56;;;;;;;;;;;20.30;99.90;;;;;;8396904;28;20211;-71
2023/08/17 19:41:58;;;;;;;;;;;20.20;99.90;;;;;;8400858;28;19928;-73
2023/08/17 19:46:00;;;;;;;;;;;20.20;99.90;;;;;;8392452;28;19932;-72
2023/08/17 19:50:02;;;;;;;;;;;20.20;99.90;;;;;;8406041;28;19932;-72
2023/08/17 19:54:04;;;;;;;;;;;20.20;99.90;;;;;;8387814;28;21634;-72
2023/08/17 19:58:05;;;;;;;;;;;20.30;99.90;;;;;;8400122;28;19928;-72
2023/08/17 20:02:07;;;;;;;;;;;20.20;99.90;;;;;;8402533;28;19928;-72
2023/08/17 20:06:09;;;;;;;;;;;20.20;99.90;;;;;;8408276;28;20757;-72
2023/08/17 20:10:10;;;;;;;;;;;20.20;99.90;;;;;;8421751;27;20320;-72
2023/08/17 20:14:12;;;;;;;;;;;20.30;99.90;;;;;;8405047;28;19932;-72
2023/08/17 20:18:17;;;;;;;;;;;20.30;99.90;;;;;;8416381;28;19935;-71
2023/08/17 20:22:18;;;;;;;;;;;20.30;99.90;;;;;;8402144;28;19932;-71
2023/08/17 20:26:20;;;;;;;;;;;20.30;99.90;;;;;;8407427;28;19972;-73
2023/08/17 20:30:22;;;;;;;;;;;20.30;99.90;;;;;;8405995;28;19932;-72
2023/08/17 20:34:23;;;;;;;;;;;20.30;99.90;;;;;;8411685;28;19928;-72
2023/08/17 20:38:25;;;;;;;;;;;20.30;99.90;;;;;;8399448;28;19924;-72
2023/08/17 20:42:27;;;;;;;;;;;20.30;99.90;;;;;;8408444;28;19932;-72
2023/08/17 20:46:29;;;;;;;;;;;20.30;99.90;;;;;;8403426;28;19951;-72
2023/08/17 20:50:32;;;;;;;;;;;20.30;99.90;;;;;;8407202;28;19928;-72
2023/08/17 20:54:33;;;;;;;;;;;20.20;99.90;;;;;;8405536;28;19928;-72
2023/08/17 20:58:35;;;;;;;;;;;20.20;99.90;;;;;;8397734;28;19931;-72
2023/08/17 21:02:36;;;;;;;;;;;20.20;99.90;;;;;;8428275;28;19925;-71
2023/08/17 21:06:40;;;;;;;;;;;20.20;99.90;;;;;;8426313;28;19928;-72
2023/08/17 21:10:44;;;;;;;;;;;20.20;99.90;;;;;;8420949;28;19939;-72
2023/08/17 21:14:47;;;;;;;;;;;20.20;99.90;;;;;;8424068;28;19932;-72
2023/08/17 21:18:48;;;;;;;;;;;20.20;99.90;;;;;;8423912;28;19942;-72
2023/08/17 21:22:50;;;;;;;;;;;20.20;99.90;;;;;;8427715;28;19997;-72
2023/08/17 21:26:52;;;;;;;;;;;20.10;99.90;;;;;;8413765;28;19924;-72
2023/08/17 21:30:59;;;;;;;;;;;20.10;99.90;;;;;;8423862;28;19924;-72
2023/08/17 21:35:01;;;;;;;;;;;20.10;99.90;;;;;;8431969;28;19924;-72
2023/08/17 21:39:03;;;;;;;;;;;20.10;99.90;;;;;;8423600;28;19931;-72
2023/08/17 21:43:04;;;;;;;;;;;20.10;99.90;;;;;;8425179;28;19973;-72
2023/08/17 21:47:06;;;;;;;;;;;20.10;99.90;;;;;;8422795;28;19931;-71
2023/08/17 21:51:08;;;;;;;;;;;20.00;99.90;;;;;;8431037;28;20265;-72
2023/08/17 21:55:10;;;;;;;;;;;20.00;99.90;;;;;;8408611;28;19928;-72
2023/08/17 21:59:12;;;;;;;;;;;20.00;99.90;;;;;;8433686;28;19924;-72
2023/08/17 22:03:15;;;;;;;;;;;20.00;99.90;;;;;;8421348;28;19924;-72
2023/08/17 22:07:16;;;;;;;;;;;20.00;99.90;;;;;;8426534;28;19959;-72
2023/08/17 22:11:18;;;;;;;;;;;20.00;99.90;;;;;;8420567;28;19973;-72
2023/08/17 22:15:20;;;;;;;;;;;20.00;99.90;;;;;;8398400;28;19925;-72
2023/08/17 22:19:21;;;;;;;;;;;20.00;99.90;;;;;;8414129;28;19939;-72
2023/08/17 22:23:23;;;;;;;;;;;20.00;99.90;;;;;;8405635;28;19928;-72
2023/08/17 22:27:25;;;;;;;;;;;20.00;99.90;;;;;;8406844;28;19924;-72
2023/08/17 22:31:27;;;;;;;;;;;20.00;99.90;;;;;;8416114;28;19969;-72
2023/08/17 22:35:28;;;;;;;;;;;20.00;99.90;;;;;;8425639;28;19924;-72
2023/08/17 22:39:30;;;;;;;;;;;20.00;99.90;;;;;;8424548;28;19954;-72
2023/08/17 22:43:31;;;;;;;;;;;19.90;99.90;;;;;;8423304;28;20338;-72
2023/08/17 22:47:33;;;;;;;;;;;19.90;99.90;;;;;;8407560;28;20676;-72
2023/08/17 22:51:35;;;;;;;;;;;19.90;99.90;;;;;;8422837;28;20402;-71
2023/08/17 22:55:37;;;;;;;;;;;19.90;99.90;;;;;;8436602;28;19935;-71
2023/08/17 22:59:38;;;;;;;;;;;19.90;99.90;;;;;;8419877;28;19924;-72
2023/08/17 23:03:40;;;;;;;;;;;19.80;99.90;;;;;;8434183;28;19931;-72
2023/08/17 23:07:42;;;;;;;;;;;19.80;99.90;;;;;;8427580;28;20257;-72
2023/08/17 23:11:44;;;;;;;;;;;19.70;99.90;;;;;;8415414;28;19935;-71
2023/08/17 23:15:45;;;;;;;;;;;19.70;99.90;;;;;;8408793;28;19977;-72
2023/08/17 23:19:47;;;;;;;;;;;19.70;99.90;;;;;;8429515;28;19928;-72
2023/08/17 23:23:49;;;;;;;;;;;19.70;99.90;;;;;;8410588;28;19925;-72
2023/08/17 23:27:50;;;;;;;;;;;19.60;99.90;;;;;;8421748;28;19947;-72
2023/08/17 23:31:52;;;;;;;;;;;19.60;99.90;;;;;;8423679;28;19938;-71
2023/08/17 23:35:54;;;;;;;;;;;19.60;99.90;;;;;;8427454;28;19924;-72
2023/08/17 23:39:56;;;;;;;;;;;19.60;99.90;;;;;;8408563;28;19964;-71
2023/08/17 23:43:57;;;;;;;;;;;19.60;99.90;;;;;;8429490;28;20503;-71
2023/08/17 23:47:59;;;;;;;;;;;19.50;99.90;;;;;;8436744;27;19939;-72
2023/08/17 23:52:01;;;;;;;;;;;19.60;99.90;;;;;;8412993;28;19946;-72
2023/08/17 23:56:02;;;;;;;;;;;19.50;99.90;;;;;;8432099;28;19925;-72
